createdAt,value
2017-11-11T00:00:57.208Z,6.8
2017-11-11T00:01:59.201Z,7.2
2017-11-11T00:03:01.224Z,6.9
2017-11-11T00:04:03.191Z,6.7
2017-11-11T00:05:05.430Z,6.6
2017-11-11T00:06:07.392Z,6.5
2017-11-11T00:07:09.364Z,6.6
2017-11-11T00:08:11.417Z,6.6
2017-11-11T00:09:13.367Z,6.7
2017-11-11T00:10:15.396Z,6.9
2017-11-11T00:11:17.315Z,7.1
2017-11-11T00:12:19.332Z,7.2
2017-11-11T00:13:21.314Z,6.8
2017-11-11T00:14:23.323Z,6.8
2017-11-11T00:15:25.353Z,6.8
2017-11-11T00:16:27.352Z,6.9
2017-11-11T00:17:29.378Z,7
2017-11-11T00:18:31.335Z,7.3
2017-11-11T00:19:33.257Z,7.5
2017-11-11T00:20:35.301Z,7.1
2017-11-11T00:21:37.278Z,7.1
2017-11-11T00:22:39.525Z,7.4
2017-11-11T00:23:41.536Z,7.1
2017-11-11T00:24:43.838Z,7
2017-11-11T00:25:45.809Z,6.8
2017-11-11T00:26:47.815Z,6.7
2017-11-11T00:27:50.008Z,6.7
2017-11-11T00:28:51.992Z,6.8
2017-11-11T00:29:53.976Z,6.7
2017-11-11T00:30:55.985Z,6.9
2017-11-11T00:31:57.924Z,6.8
2017-11-11T00:33:00.039Z,6.7
2017-11-11T00:34:02.124Z,6.5
2017-11-11T00:35:04.046Z,6.7
2017-11-11T00:36:06.050Z,7.2
2017-11-11T00:37:07.927Z,7
2017-11-11T00:38:09.957Z,6.9
2017-11-11T00:39:11.909Z,7.2
2017-11-11T00:40:14.947Z,7.2
2017-11-11T00:41:17.026Z,7.3
2017-11-11T00:42:19.119Z,7.2
2017-11-11T00:43:21.274Z,7
2017-11-11T00:44:23.283Z,7.1
2017-11-11T00:45:25.268Z,7
2017-11-11T00:46:33.535Z,7.2
2017-11-11T00:47:35.448Z,6.9
2017-11-11T00:48:37.430Z,6.9
2017-11-11T00:49:39.486Z,7.1
2017-11-11T00:50:41.496Z,7
2017-11-11T00:51:43.494Z,7.1
2017-11-11T00:52:45.528Z,6.9
2017-11-11T00:53:47.495Z,6.6
2017-11-11T00:54:49.386Z,7.1
2017-11-11T00:55:51.240Z,7.3
2017-11-11T00:56:53.211Z,7
2017-11-11T00:57:55.173Z,7.1
2017-11-11T00:58:57.180Z,7
2017-11-11T00:59:59.134Z,7.2
2017-11-11T01:01:01.140Z,7.2
2017-11-11T01:02:03.507Z,7.4
2017-11-11T01:03:05.486Z,7.3
2017-11-11T01:04:07.468Z,7.2
2017-11-11T01:05:09.423Z,7.2
2017-11-11T01:06:11.395Z,6.9
2017-11-11T01:07:13.478Z,6.7
2017-11-11T01:08:15.433Z,6.8
2017-11-11T01:09:17.603Z,6.6
2017-11-11T01:10:19.537Z,6.5
2017-11-11T01:11:21.531Z,6.6
2017-11-11T01:12:23.486Z,6.8
2017-11-11T01:13:25.464Z,7
2017-11-11T01:14:27.436Z,7.2
2017-11-11T01:15:29.426Z,7.2
2017-11-11T01:16:31.446Z,7.2
2017-11-11T01:17:33.796Z,7
2017-11-11T01:18:35.820Z,7
2017-11-11T01:19:37.803Z,7.1
2017-11-11T01:20:39.722Z,6.7
2017-11-11T01:21:41.671Z,6.8
2017-11-11T01:22:43.635Z,6.7
2017-11-11T01:23:45.580Z,7.1
2017-11-11T01:24:47.531Z,7.1
2017-11-11T01:25:49.472Z,6.8
2017-11-11T01:26:51.399Z,6.9
2017-11-11T01:27:53.345Z,6.6
2017-11-11T01:28:55.437Z,6.9
2017-11-11T01:29:57.417Z,7.1
2017-11-11T01:30:59.435Z,6.6
2017-11-11T01:32:01.401Z,6.5
2017-11-11T01:33:03.383Z,6.4
2017-11-11T01:34:05.322Z,6.4
2017-11-11T01:35:07.171Z,6.9
2017-11-11T01:36:09.194Z,7
2017-11-11T01:37:11.201Z,6.7
2017-11-11T01:38:13.153Z,6.7
2017-11-11T01:39:15.095Z,6.9
2017-11-11T01:40:17.100Z,7.1
2017-11-11T01:41:19.032Z,6.9
2017-11-11T01:42:20.951Z,6.9
2017-11-11T01:43:23.491Z,6.8
2017-11-11T01:44:25.539Z,6.8
2017-11-11T01:45:27.472Z,7
2017-11-11T01:46:29.422Z,7.1
2017-11-11T01:47:31.524Z,6.8
2017-11-11T01:48:33.461Z,6.8
2017-11-11T01:49:35.329Z,7
2017-11-11T01:50:37.310Z,6.8
2017-11-11T01:51:39.319Z,6.7
2017-11-11T01:52:41.242Z,7
2017-11-11T01:53:43.202Z,6.9
2017-11-11T01:54:45.149Z,7
2017-11-11T01:55:47.611Z,7.1
2017-11-11T01:56:49.536Z,7
2017-11-11T01:57:51.532Z,6.9
2017-11-11T01:58:53.761Z,6.5
2017-11-11T01:59:55.670Z,6.5
2017-11-11T02:00:57.557Z,6.5
2017-11-11T02:01:59.556Z,6.5
2017-11-11T02:03:01.558Z,6.3
2017-11-11T02:04:03.686Z,6.3
2017-11-11T02:05:05.863Z,6.2
2017-11-11T02:06:07.752Z,6.4
2017-11-11T02:07:09.941Z,6.2
2017-11-11T02:08:12.023Z,6.1
2017-11-11T02:09:14.393Z,6.1
2017-11-11T02:10:16.353Z,6.2
2017-11-11T02:11:18.362Z,6
2017-11-11T02:12:20.299Z,6
2017-11-11T02:13:22.513Z,5.9
2017-11-11T02:14:24.471Z,6
2017-11-11T02:15:26.460Z,5.9
2017-11-11T02:16:28.469Z,5.9
2017-11-11T02:17:30.447Z,5.8
2017-11-11T02:18:32.489Z,5.9
2017-11-11T02:19:34.402Z,5.9
2017-11-11T02:20:36.349Z,6.1
2017-11-11T02:21:38.332Z,6.1
2017-11-11T02:22:40.278Z,6.1
2017-11-11T02:23:42.247Z,6
2017-11-11T02:24:44.171Z,5.9
2017-11-11T02:25:46.092Z,5.8
2017-11-11T02:26:47.974Z,5.8
2017-11-11T02:27:49.917Z,5.9
2017-11-11T02:28:51.901Z,6
2017-11-11T02:29:53.863Z,5.9
2017-11-11T02:30:55.759Z,5.9
2017-11-11T02:31:57.749Z,5.7
2017-11-11T02:32:59.666Z,5.8
2017-11-11T02:34:02.193Z,5.8
2017-11-11T02:35:04.231Z,5.8
2017-11-11T02:36:06.168Z,5.9
2017-11-11T02:37:08.085Z,5.9
2017-11-11T02:38:10.106Z,6
2017-11-11T02:39:12.113Z,5.8
2017-11-11T02:40:14.041Z,5.8
2017-11-11T02:41:16.063Z,5.8
2017-11-11T02:42:17.995Z,5.8
2017-11-11T02:43:19.966Z,5.6
2017-11-11T02:44:21.958Z,5.8
2017-11-11T02:45:23.996Z,5.7
2017-11-11T02:46:25.925Z,5.6
2017-11-11T02:47:27.941Z,5.6
2017-11-11T02:48:29.849Z,5.7
2017-11-11T02:49:31.787Z,5.6
2017-11-11T02:50:34.025Z,5.7
2017-11-11T02:51:35.961Z,5.8
2017-11-11T02:52:37.907Z,5.7
2017-11-11T02:53:39.860Z,5.7
2017-11-11T02:54:41.825Z,5.7
2017-11-11T02:55:43.772Z,5.9
2017-11-11T02:56:45.749Z,5.9
2017-11-11T02:57:47.961Z,5.8
2017-11-11T02:58:49.873Z,5.7
2017-11-11T02:59:51.873Z,5.7
2017-11-11T03:00:54.333Z,5.7
2017-11-11T03:01:56.259Z,5.7
2017-11-11T03:02:58.246Z,5.8
2017-11-11T03:04:00.195Z,5.8
2017-11-11T03:05:02.187Z,5.7
2017-11-11T03:06:04.192Z,5.7
2017-11-11T03:07:06.128Z,5.7
2017-11-11T03:08:08.053Z,5.8
2017-11-11T03:09:10.092Z,5.7
2017-11-11T03:10:12.012Z,5.6
2017-11-11T03:11:13.938Z,5.8
2017-11-11T03:12:16.113Z,6.1
2017-11-11T03:13:18.001Z,5.7
2017-11-11T03:14:19.973Z,5.7
2017-11-11T03:15:22.194Z,5.6
2017-11-11T03:16:24.411Z,5.6
2017-11-11T03:17:26.269Z,5.5
2017-11-11T03:18:28.200Z,5.5
2017-11-11T03:19:30.104Z,5.4
2017-11-11T03:20:31.993Z,5.5
2017-11-11T03:21:33.969Z,5.4
2017-11-11T03:22:35.887Z,5.4
2017-11-11T03:23:37.789Z,5.3
2017-11-11T03:24:39.702Z,5.4
2017-11-11T03:25:41.660Z,5.4
2017-11-11T03:26:43.649Z,5.6
2017-11-11T03:27:45.584Z,5.5
2017-11-11T03:28:47.539Z,5.6
2017-11-11T03:29:49.425Z,5.5
2017-11-11T03:30:51.376Z,5.7
2017-11-11T03:31:53.434Z,5.7
2017-11-11T03:32:55.365Z,5.8
2017-11-11T03:33:57.212Z,5.7
2017-11-11T03:34:59.143Z,5.6
2017-11-11T03:36:01.123Z,5.6
2017-11-11T03:37:03.129Z,5.4
2017-11-11T03:38:05.075Z,5.4
2017-11-11T03:39:07.020Z,5.3
2017-11-11T03:40:08.968Z,5.4
2017-11-11T03:41:10.918Z,5.5
2017-11-11T03:42:13.197Z,5.4
2017-11-11T03:43:15.142Z,5.3
2017-11-11T03:44:17.081Z,5.3
2017-11-11T03:45:19.067Z,5.4
2017-11-11T03:46:21.001Z,5.3
2017-11-11T03:47:23.193Z,5.2
2017-11-11T03:48:25.092Z,5.2
2017-11-11T03:49:27.046Z,5.3
2017-11-11T03:50:28.976Z,5.3
2017-11-11T03:51:30.895Z,5.3
2017-11-11T03:52:33.147Z,5.3
2017-11-11T03:53:35.077Z,5.3
2017-11-11T03:54:36.979Z,5.3
2017-11-11T03:55:38.886Z,5.3
2017-11-11T03:56:40.764Z,5.3
2017-11-11T03:57:42.983Z,5.2
2017-11-11T03:58:44.856Z,5.2
2017-11-11T03:59:47.348Z,5.2
2017-11-11T04:00:49.296Z,5.2
2017-11-11T04:01:51.296Z,5.1
2017-11-11T04:02:53.246Z,5.1
2017-11-11T04:03:55.184Z,5.1
2017-11-11T04:04:57.140Z,5
2017-11-11T04:05:59.069Z,4.9
2017-11-11T04:07:01.009Z,5
2017-11-11T04:08:03.304Z,5.1
2017-11-11T04:09:05.232Z,5.1
2017-11-11T04:10:07.345Z,5.1
2017-11-11T04:11:09.330Z,5.1
2017-11-11T04:12:12.035Z,5.3
2017-11-11T04:13:14.341Z,5.4
2017-11-11T04:14:16.341Z,5.2
2017-11-11T04:15:18.286Z,5.2
2017-11-11T04:16:20.263Z,5.1
2017-11-11T04:17:22.179Z,5.1
2017-11-11T04:18:24.366Z,5.1
2017-11-11T04:19:26.332Z,5.1
2017-11-11T04:20:28.305Z,5.1
2017-11-11T04:21:30.262Z,5.1
2017-11-11T04:22:32.210Z,5
2017-11-11T04:23:34.523Z,4.9
2017-11-11T04:24:36.425Z,4.9
2017-11-11T04:25:38.341Z,4.9
2017-11-11T04:26:40.271Z,4.9
2017-11-11T04:27:42.202Z,4.9
2017-11-11T04:28:44.185Z,5
2017-11-11T04:29:46.139Z,5.1
2017-11-11T04:30:48.069Z,5.1
2017-11-11T04:31:50.058Z,5.1
2017-11-11T04:32:52.308Z,5.2
2017-11-11T04:33:54.274Z,5.1
2017-11-11T04:34:56.212Z,5.1
2017-11-11T04:35:58.158Z,5.2
2017-11-11T04:37:00.099Z,5.2
2017-11-11T04:38:02.079Z,5.2
2017-11-11T04:39:04.077Z,5.2
2017-11-11T04:40:06.032Z,5.1
2017-11-11T04:41:08.086Z,5.1
2017-11-11T04:42:10.206Z,5.1
2017-11-11T04:43:12.222Z,5.2
2017-11-11T04:44:14.231Z,5.1
2017-11-11T04:45:16.228Z,5.1
2017-11-11T04:46:18.091Z,5.1
2017-11-11T04:47:20.275Z,5.1
2017-11-11T04:48:22.215Z,5.2
2017-11-11T04:49:24.197Z,5.1
2017-11-11T04:50:26.127Z,5.1
2017-11-11T04:51:28.035Z,5.1
2017-11-11T04:52:29.922Z,5.1
2017-11-11T04:53:31.878Z,5.1
2017-11-11T04:54:34.118Z,5.1
2017-11-11T04:55:36.057Z,5.1
2017-11-11T04:56:38.016Z,5.1
2017-11-11T04:57:39.917Z,5.1
2017-11-11T04:58:41.840Z,5.1
2017-11-11T04:59:44.170Z,5
2017-11-11T05:00:46.128Z,5
2017-11-11T05:01:48.137Z,5.2
2017-11-11T05:02:50.091Z,5.1
2017-11-11T05:03:52.014Z,5.3
2017-11-11T05:04:53.949Z,5.3
2017-11-11T05:05:55.801Z,5.3
2017-11-11T05:06:57.777Z,5.3
2017-11-11T05:07:59.688Z,5.2
2017-11-11T05:09:01.714Z,5.1
2017-11-11T05:10:03.703Z,5
2017-11-11T05:11:05.709Z,5.1
2017-11-11T05:12:07.704Z,5
2017-11-11T05:13:09.574Z,5
2017-11-11T05:14:11.477Z,5
2017-11-11T05:15:13.381Z,5.1
2017-11-11T05:16:15.321Z,5
2017-11-11T05:17:17.182Z,4.9
2017-11-11T05:18:19.241Z,4.8
2017-11-11T05:19:21.220Z,4.8
2017-11-11T05:20:23.460Z,4.9
2017-11-11T05:21:25.421Z,5.1
2017-11-11T05:22:27.389Z,5
2017-11-11T05:23:29.249Z,5
2017-11-11T05:24:31.197Z,4.9
2017-11-11T05:25:33.393Z,5.1
2017-11-11T05:26:35.427Z,5.1
2017-11-11T05:27:37.402Z,4.9
2017-11-11T05:28:39.278Z,5
2017-11-11T05:29:41.212Z,5
2017-11-11T05:30:43.245Z,4.9
2017-11-11T05:31:45.218Z,4.9
2017-11-11T05:32:47.154Z,4.9
2017-11-11T05:33:49.080Z,4.9
2017-11-11T05:34:51.053Z,4.9
2017-11-11T05:35:53.105Z,4.9
2017-11-11T05:36:55.036Z,4.9
2017-11-11T05:37:57.047Z,4.8
2017-11-11T05:38:59.058Z,5.2
2017-11-11T05:40:01.114Z,4.8
2017-11-11T05:41:03.145Z,4.7
2017-11-11T05:42:05.093Z,4.8
2017-11-11T05:43:07.283Z,4.8
2017-11-11T05:44:09.416Z,4.9
2017-11-11T05:45:11.327Z,4.8
2017-11-11T05:46:13.457Z,4.9
2017-11-11T05:47:15.498Z,4.9
2017-11-11T05:48:17.668Z,4.9
2017-11-11T05:49:19.761Z,5
2017-11-11T05:50:21.743Z,5.1
2017-11-11T05:51:23.704Z,4.8
2017-11-11T05:52:25.648Z,5.1
2017-11-11T05:53:27.878Z,5.1
2017-11-11T05:54:29.905Z,5
2017-11-11T05:55:31.910Z,5
2017-11-11T05:56:33.898Z,5
2017-11-11T05:57:35.847Z,4.9
2017-11-11T05:58:38.075Z,4.8
2017-11-11T05:59:40.167Z,4.9
2017-11-11T06:00:42.213Z,5.2
2017-11-11T06:01:44.576Z,5
2017-11-11T06:02:46.538Z,4.9
2017-11-11T06:03:48.464Z,5
2017-11-11T06:04:51.140Z,4.9
2017-11-11T06:05:53.230Z,4.7
2017-11-11T06:06:55.566Z,4.8
2017-11-11T06:07:57.611Z,4.7
2017-11-11T06:08:59.579Z,4.7
2017-11-11T06:10:01.751Z,4.6
2017-11-11T06:11:03.749Z,4.6
2017-11-11T06:12:05.961Z,4.7
2017-11-11T06:13:08.111Z,4.7
2017-11-11T06:14:10.335Z,4.6
2017-11-11T06:15:12.446Z,4.5
2017-11-11T06:16:14.613Z,4.6
2017-11-11T06:17:16.857Z,4.6
2017-11-11T06:18:19.021Z,4.5
2017-11-11T06:19:21.210Z,4.5
2017-11-11T06:20:23.414Z,4.6
2017-11-11T06:21:25.732Z,4.6
2017-11-11T06:22:27.829Z,4.6
2017-11-11T06:23:29.989Z,4.6
2017-11-11T06:24:32.575Z,4.6
2017-11-11T06:25:34.568Z,4.7
2017-11-11T06:26:36.508Z,4.7
2017-11-11T06:27:38.794Z,4.7
2017-11-11T06:28:41.520Z,4.8
2017-11-11T06:29:43.632Z,5.1
2017-11-11T06:30:45.737Z,5
2017-11-11T06:31:47.778Z,4.8
2017-11-11T06:32:49.890Z,4.8
2017-11-11T06:33:51.968Z,5
2017-11-11T06:34:54.634Z,5
2017-11-11T06:35:56.643Z,5.1
2017-11-11T06:36:58.623Z,5
2017-11-11T06:38:00.691Z,5
2017-11-11T06:39:02.735Z,4.9
2017-11-11T06:40:04.732Z,5
2017-11-11T06:41:06.717Z,4.9
2017-11-11T06:42:08.882Z,5
2017-11-11T06:43:10.973Z,5
2017-11-11T06:44:13.049Z,5.1
2017-11-11T06:45:15.028Z,5
2017-11-11T06:46:17.137Z,5.1
2017-11-11T06:47:19.240Z,5
2017-11-11T06:48:21.535Z,5.1
2017-11-11T06:49:23.560Z,5
2017-11-11T06:50:25.738Z,5
2017-11-11T06:51:27.886Z,5.1
2017-11-11T06:52:29.954Z,5.2
2017-11-11T06:53:32.024Z,5.1
2017-11-11T06:54:34.055Z,5.2
2017-11-11T06:55:36.059Z,5.1
2017-11-11T06:56:38.070Z,5.1
2017-11-11T06:57:40.055Z,5.2
2017-11-11T06:58:42.163Z,5.2
2017-11-11T06:59:44.165Z,5.2
2017-11-11T07:00:46.292Z,5.1
2017-11-11T07:01:48.469Z,5.1
2017-11-11T07:02:50.436Z,5
2017-11-11T07:03:52.459Z,5.1
2017-11-11T07:04:54.581Z,5.2
2017-11-11T07:05:56.694Z,5.3
2017-11-11T07:06:58.662Z,5.2
2017-11-11T07:08:00.723Z,5.2
2017-11-11T07:09:02.828Z,5.2
2017-11-11T07:10:04.922Z,5.4
2017-11-11T07:11:07.042Z,5.3
2017-11-11T07:12:09.100Z,5.5
2017-11-11T07:13:11.120Z,5.3
2017-11-11T07:14:13.230Z,5.5
2017-11-11T07:15:15.264Z,5.5
2017-11-11T07:16:17.352Z,5.4
2017-11-11T07:17:19.362Z,5.4
2017-11-11T07:18:21.421Z,5.5
2017-11-11T07:19:23.738Z,5.5
2017-11-11T07:20:26.422Z,5.3
2017-11-11T07:21:28.569Z,5.4
2017-11-11T07:22:30.720Z,5.5
2017-11-11T07:23:32.817Z,5.5
2017-11-11T07:24:34.947Z,5.6
2017-11-11T07:25:37.034Z,5.5
2017-11-11T07:26:39.068Z,5.5
2017-11-11T07:27:41.133Z,5.5
2017-11-11T07:28:43.187Z,5.7
2017-11-11T07:29:45.202Z,5.7
2017-11-11T07:30:47.230Z,5.7
2017-11-11T07:31:49.895Z,5.7
2017-11-11T07:32:51.981Z,5.5
2017-11-11T07:33:53.990Z,5.6
2017-11-11T07:34:56.307Z,5.6
2017-11-11T07:35:58.333Z,5.6
2017-11-11T07:37:00.371Z,5.6
2017-11-11T07:38:02.414Z,5.6
2017-11-11T07:39:04.392Z,5.6
2017-11-11T07:40:06.720Z,5.6
2017-11-11T07:41:08.562Z,5.7
2017-11-11T07:42:10.566Z,5.6
2017-11-11T07:43:12.831Z,5.6
2017-11-11T07:44:14.867Z,5.6
2017-11-11T07:45:17.055Z,5.5
2017-11-11T07:46:19.098Z,5.5
2017-11-11T07:47:21.259Z,5.4
2017-11-11T07:48:23.256Z,5.4
2017-11-11T07:49:25.300Z,5.5
2017-11-11T07:50:27.440Z,5.5
2017-11-11T07:51:29.537Z,5.4
2017-11-11T07:52:31.710Z,5.4
2017-11-11T07:53:33.675Z,5.3
2017-11-11T07:54:35.648Z,5.5
2017-11-11T07:55:38.009Z,5.6
2017-11-11T07:56:42.074Z,5.7
2017-11-11T07:57:44.115Z,5.7
2017-11-11T07:58:46.144Z,5.7
2017-11-11T07:59:49.036Z,5.7
2017-11-11T08:00:51.036Z,5.6
2017-11-11T08:01:53.139Z,5.6
2017-11-11T08:02:55.178Z,5.5
2017-11-11T08:03:57.291Z,5.4
2017-11-11T08:04:59.478Z,5.5
2017-11-11T08:06:01.582Z,5.6
2017-11-11T08:07:03.589Z,5.6
2017-11-11T08:08:05.633Z,5.7
2017-11-11T08:09:07.691Z,5.8
2017-11-11T08:10:09.751Z,5.8
2017-11-11T08:11:11.841Z,5.9
2017-11-11T08:12:14.020Z,5.9
2017-11-11T08:13:16.100Z,5.7
2017-11-11T08:14:18.143Z,5.8
2017-11-11T08:15:20.469Z,5.7
2017-11-11T08:16:22.683Z,5.7
2017-11-11T08:17:24.688Z,5.6
2017-11-11T08:18:26.695Z,5.7
2017-11-11T08:19:28.847Z,5.9
2017-11-11T08:20:31.338Z,5.8
2017-11-11T08:21:33.683Z,5.7
2017-11-11T08:22:35.748Z,5.7
2017-11-11T08:23:37.772Z,5.7
2017-11-11T08:24:39.859Z,5.8
2017-11-11T08:25:42.084Z,5.7
2017-11-11T08:26:44.184Z,5.7
2017-11-11T08:27:46.271Z,5.7
2017-11-11T08:28:48.330Z,5.7
2017-11-11T08:29:50.311Z,5.8
2017-11-11T08:30:52.300Z,5.9
2017-11-11T08:31:54.325Z,5.8
2017-11-11T08:32:56.364Z,5.8
2017-11-11T08:33:58.372Z,5.8
2017-11-11T08:35:00.452Z,5.8
2017-11-11T08:36:02.524Z,5.7
2017-11-11T08:37:05.017Z,5.8
2017-11-11T08:38:07.340Z,5.7
2017-11-11T08:39:09.359Z,6
2017-11-11T08:40:11.560Z,5.9
2017-11-11T08:41:13.550Z,5.8
2017-11-11T08:42:15.591Z,5.7
2017-11-11T08:43:17.599Z,5.7
2017-11-11T08:44:19.961Z,5.9
2017-11-11T08:45:22.098Z,5.9
2017-11-11T08:46:24.153Z,6
2017-11-11T08:47:26.187Z,5.9
2017-11-11T08:48:28.227Z,6.2
2017-11-11T08:49:30.591Z,6.2
2017-11-11T08:50:32.654Z,6.1
2017-11-11T08:51:34.700Z,5.9
2017-11-11T08:52:36.853Z,6
2017-11-11T08:53:38.965Z,6.1
2017-11-11T08:54:41.043Z,5.8
2017-11-11T08:55:43.069Z,5.9
2017-11-11T08:56:45.739Z,5.9
2017-11-11T08:57:48.790Z,6.1
2017-11-11T08:58:50.797Z,5.8
2017-11-11T08:59:52.856Z,5.8
2017-11-11T09:00:54.946Z,5.9
2017-11-11T09:01:56.991Z,6
2017-11-11T09:02:58.972Z,6
2017-11-11T09:04:01.027Z,5.9
2017-11-11T09:05:03.113Z,5.9
2017-11-11T09:06:05.101Z,5.9
2017-11-11T09:07:07.164Z,6
2017-11-11T09:08:09.284Z,5.9
2017-11-11T09:09:11.347Z,5.9
2017-11-11T09:10:13.450Z,5.9
2017-11-11T09:11:15.471Z,5.9
2017-11-11T09:12:17.618Z,5.9
2017-11-11T09:13:19.741Z,6
2017-11-11T09:14:21.781Z,5.9
2017-11-11T09:15:23.910Z,5.8
2017-11-11T09:16:25.923Z,5.8
2017-11-11T09:17:27.950Z,5.9
2017-11-11T09:18:30.092Z,5.9
2017-11-11T09:19:32.104Z,5.9
2017-11-11T09:20:34.183Z,6
2017-11-11T09:21:36.143Z,6
2017-11-11T09:22:38.268Z,5.9
2017-11-11T09:23:40.365Z,5.9
2017-11-11T09:24:42.391Z,5.8
2017-11-11T09:25:44.484Z,5.9
2017-11-11T09:26:46.492Z,5.8
2017-11-11T09:27:48.464Z,6
2017-11-11T09:28:50.498Z,5.8
2017-11-11T09:29:52.492Z,5.9
2017-11-11T09:30:54.476Z,5.9
2017-11-11T09:31:56.700Z,5.9
2017-11-11T09:32:58.686Z,6
2017-11-11T09:34:00.774Z,5.9
2017-11-11T09:35:02.828Z,5.9
2017-11-11T09:36:04.859Z,6
2017-11-11T09:37:06.861Z,5.9
2017-11-11T09:38:08.930Z,5.9
2017-11-11T09:39:11.055Z,5.9
2017-11-11T09:40:13.007Z,6
2017-11-11T09:41:15.060Z,6.1
2017-11-11T09:42:17.027Z,6.1
2017-11-11T09:43:19.144Z,6.2
2017-11-11T09:44:21.217Z,6.1
2017-11-11T09:45:23.732Z,6.1
2017-11-11T09:46:25.844Z,6
2017-11-11T09:47:27.869Z,6.1
2017-11-11T09:48:29.883Z,6.1
2017-11-11T09:49:31.977Z,6
2017-11-11T09:50:33.968Z,5.9
2017-11-11T09:51:35.916Z,6
2017-11-11T09:52:37.988Z,6
2017-11-11T09:53:40.121Z,5.9
2017-11-11T09:54:42.267Z,5.9
2017-11-11T09:55:44.343Z,6
2017-11-11T09:56:46.394Z,6.1
2017-11-11T09:57:48.405Z,6
2017-11-11T09:58:50.445Z,6.1
2017-11-11T09:59:52.601Z,6
2017-11-11T10:00:54.604Z,5.9
2017-11-11T10:01:56.657Z,5.9
2017-11-11T10:02:58.751Z,6
2017-11-11T10:04:00.753Z,6.1
2017-11-11T10:05:02.841Z,6.1
2017-11-11T10:06:04.888Z,6
2017-11-11T10:07:06.925Z,6
2017-11-11T10:08:09.025Z,6
2017-11-11T10:09:11.062Z,6
2017-11-11T10:10:13.206Z,6
2017-11-11T10:11:15.288Z,6
2017-11-11T10:12:17.274Z,6.1
2017-11-11T10:13:19.328Z,6.1
2017-11-11T10:14:21.440Z,6
2017-11-11T10:15:23.613Z,5.9
2017-11-11T10:16:25.782Z,6.1
2017-11-11T10:17:27.971Z,6
2017-11-11T10:18:30.011Z,6.1
2017-11-11T10:19:32.182Z,6
2017-11-11T10:20:34.256Z,6
2017-11-11T10:21:36.288Z,6.1
2017-11-11T10:22:38.767Z,6.1
2017-11-11T10:23:40.874Z,6.1
2017-11-11T10:24:43.866Z,6.1
2017-11-11T10:25:46.034Z,6.2
2017-11-11T10:26:48.649Z,6.2
2017-11-11T10:27:50.709Z,6.2
2017-11-11T10:28:52.769Z,6.2
2017-11-11T10:29:54.820Z,6.3
2017-11-11T10:30:56.963Z,6.2
2017-11-11T10:31:59.015Z,6.2
2017-11-11T10:33:01.158Z,6.2
2017-11-11T10:34:03.899Z,6.1
2017-11-11T10:35:05.963Z,6.1
2017-11-11T10:36:08.118Z,6.3
2017-11-11T10:37:10.299Z,6.1
2017-11-11T10:38:12.351Z,6.4
2017-11-11T10:39:14.380Z,6.1
2017-11-11T10:40:16.342Z,6.2
2017-11-11T10:41:18.440Z,6.2
2017-11-11T10:42:20.509Z,6.2
2017-11-11T10:43:22.665Z,6.2
2017-11-11T10:44:24.736Z,6.3
2017-11-11T10:45:26.836Z,6.2
2017-11-11T10:46:28.921Z,6.2
2017-11-11T10:47:30.913Z,6.2
2017-11-11T10:48:32.957Z,6.2
2017-11-11T10:49:34.920Z,6.5
2017-11-11T10:50:36.871Z,6.3
2017-11-11T10:51:38.985Z,6.4
2017-11-11T10:52:40.980Z,6.3
2017-11-11T10:53:42.970Z,6.3
2017-11-11T10:54:45.073Z,6.3
2017-11-11T10:55:47.095Z,6.3
2017-11-11T10:56:49.143Z,6.3
2017-11-11T10:57:51.186Z,6.2
2017-11-11T10:58:53.325Z,6.3
2017-11-11T10:59:55.446Z,6.3
2017-11-11T11:00:57.503Z,6.3
2017-11-11T11:01:59.804Z,6.4
2017-11-11T11:03:01.839Z,6.3
2017-11-11T11:04:03.888Z,6.2
2017-11-11T11:05:05.949Z,6.3
2017-11-11T11:06:08.093Z,6.3
2017-11-11T11:07:10.181Z,6.4
2017-11-11T11:08:12.266Z,6.3
2017-11-11T11:09:14.378Z,6.3
2017-11-11T11:10:16.434Z,6.3
2017-11-11T11:11:18.480Z,6.5
2017-11-11T11:12:20.607Z,6.3
2017-11-11T11:13:22.713Z,6.3
2017-11-11T11:14:24.845Z,6.3
2017-11-11T11:15:26.930Z,6.4
2017-11-11T11:16:28.920Z,6.4
2017-11-11T11:17:31.008Z,6.4
2017-11-11T11:18:33.060Z,6.4
2017-11-11T11:19:35.064Z,6.3
2017-11-11T11:20:37.113Z,6.2
2017-11-11T11:21:39.762Z,6.3
2017-11-11T11:22:42.148Z,6.3
2017-11-11T11:23:44.161Z,6.4
2017-11-11T11:24:46.184Z,6.4
2017-11-11T11:25:48.248Z,6.3
2017-11-11T11:26:50.336Z,6.5
2017-11-11T11:27:52.457Z,6.6
2017-11-11T11:28:54.423Z,6.6
2017-11-11T11:29:56.383Z,6.5
2017-11-11T11:30:58.500Z,6.4
2017-11-11T11:32:00.433Z,6.4
2017-11-11T11:33:02.443Z,6.3
2017-11-11T11:34:04.398Z,6.4
2017-11-11T11:35:06.413Z,6.4
2017-11-11T11:36:08.364Z,6.3
2017-11-11T11:37:10.390Z,6.4
2017-11-11T11:38:12.371Z,6.4
2017-11-11T11:39:14.236Z,6.5
2017-11-11T11:40:16.168Z,6.5
2017-11-11T11:41:18.166Z,6.5
2017-11-11T11:42:20.172Z,6.5
2017-11-11T11:43:22.287Z,6.4
2017-11-11T11:44:24.215Z,6.5
2017-11-11T11:45:26.195Z,6.5
2017-11-11T11:46:28.199Z,6.5
2017-11-11T11:47:30.284Z,6.4
2017-11-11T11:48:32.326Z,6.5
2017-11-11T11:49:34.312Z,6.5
2017-11-11T11:50:37.111Z,6.4
2017-11-11T11:51:39.047Z,6.5
2017-11-11T11:52:41.080Z,6.6
2017-11-11T11:53:43.058Z,6.5
2017-11-11T11:54:45.061Z,6.5
2017-11-11T11:55:47.025Z,6.6
2017-11-11T11:56:48.981Z,6.6
2017-11-11T11:57:50.939Z,6.6
2017-11-11T11:58:52.918Z,6.6
2017-11-11T11:59:54.947Z,6.5
2017-11-11T12:00:56.921Z,6.5
2017-11-11T12:01:58.845Z,6.5
2017-11-11T12:03:01.113Z,6.6
2017-11-11T12:04:03.188Z,6.5
2017-11-11T12:05:05.213Z,6.5
2017-11-11T12:06:07.262Z,6.5
2017-11-11T12:07:09.275Z,6.4
2017-11-11T12:08:11.337Z,6.4
2017-11-11T12:09:13.339Z,6.5
2017-11-11T12:10:15.285Z,6.4
2017-11-11T12:11:17.329Z,6.4
2017-11-11T12:12:19.315Z,6.4
2017-11-11T12:13:21.475Z,6.4
2017-11-11T12:14:23.566Z,6.5
2017-11-11T12:15:25.547Z,6.6
2017-11-11T12:16:27.521Z,6.5
2017-11-11T12:17:29.771Z,6.5
2017-11-11T12:18:31.697Z,6.6
2017-11-11T12:19:33.844Z,6.7
2017-11-11T12:20:35.893Z,6.6
2017-11-11T12:21:37.914Z,6.5
2017-11-11T12:22:39.889Z,6.6
2017-11-11T12:23:41.895Z,6.6
2017-11-11T12:24:44.001Z,6.6
2017-11-11T12:25:45.937Z,6.5
2017-11-11T12:26:47.948Z,6.5
2017-11-11T12:27:50.139Z,6.5
2017-11-11T12:28:52.172Z,6.5
2017-11-11T12:29:54.183Z,6.5
2017-11-11T12:30:56.162Z,6.6
2017-11-11T12:31:58.213Z,6.7
2017-11-11T12:33:00.134Z,6.7
2017-11-11T12:34:02.046Z,6.8
2017-11-11T12:35:04.045Z,6.7
2017-11-11T12:36:05.966Z,6.7
2017-11-11T12:37:07.931Z,6.6
2017-11-11T12:38:09.947Z,6.6
2017-11-11T12:39:11.914Z,6.6
2017-11-11T12:40:13.932Z,6.7
2017-11-11T12:41:16.082Z,6.7
2017-11-11T12:42:18.099Z,6.8
2017-11-11T12:43:20.117Z,6.8
2017-11-11T12:44:22.032Z,6.7
2017-11-11T12:45:24.205Z,6.6
2017-11-11T12:46:26.215Z,6.7
2017-11-11T12:47:28.160Z,6.6
2017-11-11T12:48:30.146Z,6.8
2017-11-11T12:49:32.236Z,6.8
2017-11-11T12:50:34.305Z,6.6
2017-11-11T12:51:36.388Z,6.7
2017-11-11T12:52:38.485Z,6.6
2017-11-11T12:53:40.464Z,6.7
2017-11-11T12:54:42.575Z,6.7
2017-11-11T12:55:44.607Z,6.6
2017-11-11T12:56:47.290Z,6.6
2017-11-11T12:57:49.276Z,6.6
2017-11-11T12:58:51.498Z,6.7
2017-11-11T12:59:53.562Z,6.5
2017-11-11T13:00:55.679Z,6.5
2017-11-11T13:01:57.642Z,6.4
2017-11-11T13:02:59.662Z,6.4
2017-11-11T13:04:01.760Z,6.3
2017-11-11T13:05:03.790Z,6.3
2017-11-11T13:06:05.853Z,6.4
2017-11-11T13:07:07.888Z,6.4
2017-11-11T13:08:09.915Z,6.4
2017-11-11T13:09:12.140Z,6.3
2017-11-11T13:10:14.117Z,6.4
2017-11-11T13:11:16.105Z,6.4
2017-11-11T13:12:18.187Z,6.4
2017-11-11T13:13:20.168Z,6.3
2017-11-11T13:14:22.327Z,6.3
2017-11-11T13:15:24.289Z,6.3
2017-11-11T13:16:26.342Z,6.4
2017-11-11T13:17:29.147Z,6.4
2017-11-11T13:18:31.382Z,6.4
2017-11-11T13:19:33.436Z,6.4
2017-11-11T13:20:35.386Z,6.4
2017-11-11T13:21:37.553Z,6.4
2017-11-11T13:22:39.645Z,6.2
2017-11-11T13:23:42.317Z,6.2
2017-11-11T13:24:44.384Z,6.2
2017-11-11T13:25:46.518Z,6.2
2017-11-11T13:26:48.566Z,6.3
2017-11-11T13:27:50.532Z,6.3
2017-11-11T13:28:52.690Z,6.3
2017-11-11T13:29:54.807Z,6.2
2017-11-11T13:30:56.858Z,6.2
2017-11-11T13:31:58.988Z,6.1
2017-11-11T13:33:01.057Z,6.2
2017-11-11T13:34:03.112Z,6.2
2017-11-11T13:35:05.141Z,6.2
2017-11-11T13:36:07.131Z,6.2
2017-11-11T13:37:09.740Z,6.2
2017-11-11T13:38:12.119Z,6.2
2017-11-11T13:39:15.198Z,6.2
2017-11-11T13:40:17.414Z,6.3
2017-11-11T13:41:19.494Z,6.2
2017-11-11T13:42:21.636Z,6.2
2017-11-11T13:43:23.707Z,6.2
2017-11-11T13:44:25.812Z,6.2
2017-11-11T13:45:27.861Z,6.2
2017-11-11T13:46:29.852Z,6.3
2017-11-11T13:47:31.933Z,6.2
2017-11-11T13:48:34.036Z,6.2
2017-11-11T13:49:36.140Z,6.1
2017-11-11T13:50:38.212Z,6.2
2017-11-11T13:51:40.178Z,6.2
2017-11-11T13:52:42.248Z,6.1
2017-11-11T13:53:44.281Z,6.2
2017-11-11T13:54:46.315Z,6.2
2017-11-11T13:55:48.401Z,6.1
2017-11-11T13:56:50.616Z,6.2
2017-11-11T13:57:52.609Z,6.1
2017-11-11T13:58:54.653Z,6.1
2017-11-11T13:59:56.630Z,6.1
2017-11-11T14:00:58.818Z,6.1
2017-11-11T14:02:00.797Z,6.2
2017-11-11T14:03:02.816Z,6.2
2017-11-11T14:04:05.028Z,6.1
2017-11-11T14:05:07.077Z,5.9
2017-11-11T14:06:09.103Z,6
2017-11-11T14:07:11.228Z,6.1
2017-11-11T14:08:13.577Z,5.9
2017-11-11T14:09:15.854Z,6
2017-11-11T14:10:17.867Z,6.1
2017-11-11T14:11:19.929Z,6.2
2017-11-11T14:12:22.106Z,6
2017-11-11T14:13:24.843Z,6.1
2017-11-11T14:14:26.914Z,6.1
2017-11-11T14:15:28.924Z,6
2017-11-11T14:16:31.185Z,6
2017-11-11T14:17:33.162Z,6
2017-11-11T14:18:35.230Z,6
2017-11-11T14:19:37.275Z,5.9
2017-11-11T14:20:39.355Z,5.9
2017-11-11T14:21:42.134Z,6.1